Time;durP1;ratioP1;P1;durP2;ratioP2;P2;SDS_P1;SDS_P2;PMS_P1;PMS_P2;Temp;Humidity;BMP_temperature;BMP_pressure;BME280_temperature;BME280_humidity;BME280_pressure;Samples;Min_cycle;Max_cycle;Signal;HPM_P1;HPM_P2
2022/07/11 00:00:14;;;;;;;2.13;1.48;;;25.40;99.90;;;;;;5018475;28;20169;-75
2022/07/11 00:02:40;;;;;;;3.17;1.73;;;25.40;99.90;;;;;;5047159;28;20380;-79
2022/07/11 00:05:09;;;;;;;3.42;1.73;;;25.30;99.90;;;;;;5060668;28;20125;-75
2022/07/11 00:07:36;;;;;;;2.55;1.30;;;25.40;99.90;;;;;;5043874;28;20025;-75
2022/07/11 00:10:04;;;;;;;2.75;1.60;;;25.40;99.90;;;;;;5022001;28;20136;-79
2022/07/11 00:12:33;;;;;;;6.93;1.63;;;25.30;99.90;;;;;;5046483;28;20036;-75
2022/07/11 00:14:58;;;;;;;3.20;1.58;;;25.40;99.90;;;;;;5041443;28;20064;-75
2022/07/11 00:17:24;;;;;;;4.75;1.50;;;25.40;99.90;;;;;;5056862;28;20037;-76
2022/07/11 00:19:50;;;;;;;4.32;1.35;;;25.30;99.90;;;;;;5045466;28;20056;-78
2022/07/11 00:22:16;;;;;;;3.53;1.60;;;25.30;99.80;;;;;;5039525;28;20029;-77
2022/07/11 00:24:42;;;;;;;3.63;1.30;;;25.30;99.20;;;;;;5043015;28;20028;-76
2022/07/11 00:27:08;;;;;;;2.38;1.00;;;25.30;97.10;;;;;;5055299;28;20145;-76
2022/07/11 00:29:33;;;;;;;5.18;0.90;;;25.40;96.00;;;;;;5046017;28;20028;-78
2022/07/11 00:31:59;;;;;;;4.20;1.17;;;25.60;96.00;;;;;;5039518;28;20103;-78
2022/07/11 00:34:27;;;;;;;6.07;1.25;;;25.60;95.70;;;;;;5043556;28;20090;-75
2022/07/11 00:36:53;;;;;;;2.33;1.20;;;25.60;95.90;;;;;;5045907;28;20033;-81
2022/07/11 00:39:19;;;;;;;5.07;1.70;;;25.50;96.40;;;;;;5029343;28;20053;-76
2022/07/11 00:41:45;;;;;;;1.60;0.95;;;25.50;97.20;;;;;;5056243;28;20041;-76
2022/07/11 00:44:12;;;;;;;3.40;1.00;;;25.50;95.80;;;;;;5043380;28;20037;-79
2022/07/11 00:46:39;;;;;;;5.18;1.40;;;25.70;95.80;;;;;;5058937;28;20033;-75
2022/07/11 00:49:06;;;;;;;3.72;1.10;;;25.60;95.80;;;;;;5044676;28;20045;-81
2022/07/11 00:51:32;;;;;;;2.08;1.15;;;25.70;95.50;;;;;;5048505;28;20029;-74
2022/07/11 00:53:59;;;;;;;2.42;1.30;;;25.60;95.60;;;;;;5039181;28;20484;-76
2022/07/11 00:56:28;;;;;;;2.45;1.35;;;25.60;95.80;;;;;;5031617;28;20788;-74
2022/07/11 00:58:54;;;;;;;3.58;1.27;;;25.50;96.30;;;;;;5038426;28;20060;-78
2022/07/11 01:01:21;;;;;;;4.35;1.52;;;25.50;96.20;;;;;;5038749;28;20377;-74
2022/07/11 01:03:48;;;;;;;4.82;1.42;;;25.50;96.50;;;;;;5042012;28;20037;-79
2022/07/11 01:06:13;;;;;;;3.67;1.38;;;25.50;96.10;;;;;;5039998;28;20106;-74
2022/07/11 01:08:41;;;;;;;3.17;1.30;;;25.50;96.80;;;;;;5046700;28;20137;-74
2022/07/11 01:11:18;;;;;;;2.95;1.35;;;25.50;96.90;;;;;;5023593;28;20037;-77
2022/07/11 01:13:46;;;;;;;3.20;1.42;;;25.80;95.40;;;;;;5030867;28;20022;-81
2022/07/11 01:16:21;;;;;;;4.78;1.40;;;25.60;96.80;;;;;;5022865;28;20048;-76
2022/07/11 01:18:56;;;;;;;2.97;1.40;;;25.50;97.10;;;;;;5027646;28;20033;-81
2022/07/11 01:21:39;;;;;;;3.53;1.60;;;25.40;97.60;;;;;;5075524;28;20044;-76
2022/07/11 01:24:05;;;;;;;3.88;1.58;;;25.50;97.70;;;;;;5039339;28;20037;-75
2022/07/11 01:26:34;;;;;;;4.55;1.48;;;25.50;97.40;;;;;;5044574;28;20033;-75
2022/07/11 01:29:08;;;;;;;2.28;1.35;;;25.50;97.60;;;;;;5022908;28;20053;-75
2022/07/11 01:31:34;;;;;;;5.35;1.23;;;25.50;95.50;;;;;;5041570;28;20414;-74
2022/07/11 01:34:00;;;;;;;2.70;1.52;;;25.60;96.10;;;;;;5028958;28;20499;-80
2022/07/11 01:36:26;;;;;;;4.63;1.48;;;25.50;97.20;;;;;;5046302;28;20132;-76
2022/07/11 01:38:52;;;;;;;3.63;1.30;;;25.50;97.60;;;;;;5046857;28;20029;-74
2022/07/11 01:41:17;;;;;;;5.28;1.70;;;25.40;97.70;;;;;;5056794;27;20877;-75
2022/07/11 01:43:44;;;;;;;4.63;1.55;;;25.40;97.90;;;;;;5050358;28;20037;-78
2022/07/11 01:46:09;;;;;;;3.58;1.63;;;25.40;98.00;;;;;;5040916;28;20041;-75
2022/07/11 01:48:35;;;;;;;3.80;1.60;;;25.40;97.80;;;;;;5044437;28;20053;-75
2022/07/11 01:51:03;;;;;;;2.00;1.20;;;25.30;97.70;;;;;;5039957;28;20049;-74
2022/07/11 01:53:28;;;;;;;4.75;1.50;;;25.40;97.80;;;;;;5041330;28;20914;-76
2022/07/11 01:55:54;;;;;;;2.78;1.40;;;25.30;97.70;;;;;;5039997;28;20035;-74
2022/07/11 01:58:20;;;;;;;3.97;1.70;;;25.30;97.60;;;;;;5037873;28;20107;-77
2022/07/11 02:00:46;;;;;;;2.58;1.60;;;25.30;97.40;;;;;;5042662;28;20083;-78
2022/07/11 02:03:12;;;;;;;4.43;1.48;;;25.30;97.10;;;;;;5038504;28;20033;-76
2022/07/11 02:05:40;;;;;;;4.63;1.52;;;25.30;97.70;;;;;;5040934;28;20036;-74
2022/07/11 02:08:13;;;;;;;5.10;1.83;;;25.30;98.20;;;;;;5052081;28;20033;-75
2022/07/11 02:10:44;;;;;;;3.25;1.80;;;25.30;98.50;;;;;;5042467;28;20075;-74
2022/07/11 02:13:13;;;;;;;6.30;1.83;;;25.20;98.60;;;;;;5055785;28;20057;-75
2022/07/11 02:15:41;;;;;;;2.95;1.70;;;25.20;98.60;;;;;;5052852;27;20443;-75
2022/07/11 02:18:08;;;;;;;3.67;1.70;;;25.20;98.70;;;;;;5056543;28;20033;-74
2022/07/11 02:20:34;;;;;;;3.97;1.50;;;25.30;98.70;;;;;;5045095;28;20494;-81
2022/07/11 02:23:01;;;;;;;3.80;1.70;;;25.20;98.80;;;;;;5038288;28;20056;-76
2022/07/11 02:25:29;;;;;;;3.78;1.60;;;25.20;99.00;;;;;;5031047;28;20123;-74
2022/07/11 02:27:56;;;;;;;4.07;1.67;;;25.10;98.90;;;;;;5042043;28;20042;-76
2022/07/11 02:30:22;;;;;;;6.70;1.80;;;25.10;98.90;;;;;;5071365;28;20565;-79
2022/07/11 02:32:50;;;;;;;3.85;1.50;;;25.10;99.00;;;;;;5055180;28;20543;-75
2022/07/11 02:35:16;;;;;;;4.05;1.63;;;25.10;98.90;;;;;;5042024;28;20609;-79
2022/07/11 02:37:43;;;;;;;4.07;1.40;;;25.20;98.70;;;;;;5042423;28;20034;-75
2022/07/11 02:40:11;;;;;;;2.42;1.30;;;25.20;98.50;;;;;;5042568;28;20033;-75
2022/07/11 02:42:37;;;;;;;3.42;1.35;;;25.10;98.10;;;;;;5041889;28;20040;-74
2022/07/11 02:45:05;;;;;;;4.15;1.40;;;25.10;98.20;;;;;;5040542;28;20041;-75
2022/07/11 02:47:31;;;;;;;4.88;1.50;;;25.10;98.20;;;;;;5058664;28;20025;-75
2022/07/11 02:49:56;;;;;;;5.47;1.48;;;25.10;98.10;;;;;;5049453;28;20119;-75
2022/07/11 02:52:22;;;;;;;2.83;1.50;;;25.10;98.20;;;;;;5056282;28;20148;-77
2022/07/11 02:54:48;;;;;;;2.20;1.30;;;25.10;98.10;;;;;;5064504;28;20125;-82
2022/07/11 02:57:14;;;;;;;3.92;1.40;;;25.00;98.30;;;;;;5059931;27;20041;-76
2022/07/11 02:59:41;;;;;;;3.60;1.75;;;25.00;98.50;;;;;;5046374;28;20085;-76
2022/07/11 03:02:08;;;;;;;4.72;1.90;;;25.10;98.50;;;;;;5045946;28;20083;-80
2022/07/11 03:04:34;;;;;;;4.45;1.50;;;25.00;98.60;;;;;;5052991;28;20041;-77
2022/07/11 03:07:00;;;;;;;6.18;1.80;;;24.90;98.70;;;;;;5061331;28;20033;-74
2022/07/11 03:09:26;;;;;;;4.13;1.50;;;24.90;98.70;;;;;;5060513;28;20029;-78
2022/07/11 03:11:52;;;;;;;6.00;1.75;;;24.90;98.90;;;;;;5046439;28;20127;-76
2022/07/11 03:14:19;;;;;;;4.38;1.45;;;25.00;98.60;;;;;;5044093;28;20044;-74
2022/07/11 03:16:45;;;;;;;3.78;1.58;;;25.00;98.50;;;;;;5052183;28;20179;-80
2022/07/11 03:19:10;;;;;;;3.05;1.50;;;25.00;98.40;;;;;;5048700;28;20375;-75
2022/07/11 03:21:36;;;;;;;2.55;1.48;;;25.00;98.40;;;;;;5044157;28;20040;-75
2022/07/11 03:24:03;;;;;;;3.67;1.52;;;25.00;98.40;;;;;;5045046;28;20048;-76
2022/07/11 03:26:28;;;;;;;2.75;1.70;;;25.00;98.30;;;;;;5040733;28;20397;-78
2022/07/11 03:28:54;;;;;;;2.38;1.50;;;25.10;98.20;;;;;;5043335;28;20070;-75
2022/07/11 03:31:20;;;;;;;3.88;1.70;;;25.00;98.00;;;;;;5058522;28;20490;-75
2022/07/11 03:33:46;;;;;;;2.22;1.25;;;25.10;97.90;;;;;;5045877;28;20546;-76
2022/07/11 03:36:11;;;;;;;5.07;1.50;;;25.10;97.80;;;;;;5042117;28;20045;-77
2022/07/11 03:38:40;;;;;;;2.60;1.50;;;25.00;97.90;;;;;;5048126;28;20037;-74
2022/07/11 03:41:06;;;;;;;5.03;1.65;;;25.00;98.10;;;;;;5044423;28;20028;-79
2022/07/11 03:43:31;;;;;;;6.32;1.73;;;25.10;98.40;;;;;;5058000;28;20866;-76
2022/07/11 03:45:57;;;;;;;4.95;1.80;;;25.00;98.40;;;;;;5041759;28;20061;-75
2022/07/11 03:48:24;;;;;;;4.82;1.60;;;25.00;98.30;;;;;;5043115;28;20717;-78
2022/07/11 03:50:52;;;;;;;4.28;1.80;;;25.00;98.60;;;;;;5042021;27;20037;-74
2022/07/11 03:53:17;;;;;;;3.30;1.30;;;25.00;98.40;;;;;;5063256;28;20511;-79
2022/07/11 03:55:44;;;;;;;3.47;1.35;;;24.90;98.20;;;;;;5058291;28;20160;-76
2022/07/11 03:58:10;;;;;;;1.85;1.33;;;24.90;98.00;;;;;;5044300;28;20029;-78
2022/07/11 04:00:36;;;;;;;3.72;1.20;;;25.00;97.80;;;;;;5048361;28;20033;-80
2022/07/11 04:03:02;;;;;;;3.58;1.50;;;25.20;96.30;;;;;;5044766;28;20041;-75
2022/07/11 04:05:28;;;;;;;3.25;1.42;;;25.30;96.60;;;;;;5056605;28;20014;-75
2022/07/11 04:07:54;;;;;;;2.00;1.15;;;25.30;97.00;;;;;;5033669;28;20428;-78
2022/07/11 04:10:21;;;;;;;5.38;1.55;;;25.20;96.50;;;;;;5045368;28;20037;-79
2022/07/11 04:12:47;;;;;;;4.80;1.90;;;25.10;96.90;;;;;;5063043;28;20127;-75
2022/07/11 04:15:12;;;;;;;3.10;1.40;;;25.10;96.80;;;;;;5028916;28;20033;-80
2022/07/11 04:17:38;;;;;;;3.00;1.80;;;25.20;96.70;;;;;;5070986;28;20080;-76
2022/07/11 04:20:06;;;;;;;5.63;1.30;;;25.10;96.40;;;;;;5057284;28;20030;-77
2022/07/11 04:22:32;;;;;;;3.70;1.33;;;25.20;96.20;;;;;;5054206;28;20129;-75
2022/07/11 04:24:58;;;;;;;3.15;1.38;;;25.20;96.20;;;;;;5049907;28;20063;-80
2022/07/11 04:27:26;;;;;;;4.07;1.27;;;25.30;95.80;;;;;;5032936;28;20052;-76
2022/07/11 04:29:52;;;;;;;1.98;1.17;;;25.30;95.90;;;;;;5047217;28;20026;-80
2022/07/11 04:32:18;;;;;;;10.48;2.00;;;25.70;94.50;;;;;;5033639;28;20084;-76
2022/07/11 04:34:44;;;;;;;4.20;1.25;;;25.60;94.80;;;;;;5063342;28;20033;-74
2022/07/11 04:37:11;;;;;;;6.97;1.67;;;25.60;95.10;;;;;;5039904;28;20092;-75
2022/07/11 04:39:37;;;;;;;6.00;1.67;;;25.60;96.20;;;;;;5041182;28;20528;-77
2022/07/11 04:42:03;;;;;;;5.28;1.70;;;25.50;97.70;;;;;;5043554;28;20068;-74
2022/07/11 04:44:28;;;;;;;6.15;1.83;;;25.30;98.60;;;;;;5054352;28;20038;-73
2022/07/11 04:46:56;;;;;;;5.68;1.90;;;25.20;99.10;;;;;;5042131;28;20384;-78
2022/07/11 04:49:22;;;;;;;4.45;1.80;;;25.20;99.30;;;;;;5041179;28;20780;-75
2022/07/11 04:51:48;;;;;;;4.15;1.80;;;25.20;99.70;;;;;;5043018;28;20032;-81
2022/07/11 04:54:15;;;;;;;6.47;2.03;;;25.10;99.70;;;;;;5045196;28;20039;-78
2022/07/11 04:56:41;;;;;;;4.75;2.38;;;25.00;99.90;;;;;;5044561;28;20033;-75
2022/07/11 04:59:08;;;;;;;3.63;2.00;;;25.00;99.90;;;;;;5048696;28;20036;-80
2022/07/11 05:01:34;;;;;;;3.28;1.98;;;25.00;99.90;;;;;;5040029;28;20088;-75
2022/07/11 05:04:03;;;;;;;4.35;1.77;;;25.00;99.90;;;;;;5060222;28;20052;-78
2022/07/11 05:06:29;;;;;;;5.88;1.90;;;25.00;99.90;;;;;;5058027;28;20795;-74
2022/07/11 05:08:56;;;;;;;5.00;1.90;;;25.00;99.90;;;;;;5055353;28;20110;-74
2022/07/11 05:11:23;;;;;;;5.93;2.17;;;25.10;99.90;;;;;;5071173;28;20032;-75
2022/07/11 05:13:50;;;;;;;3.47;2.00;;;25.10;99.90;;;;;;5043877;28;20029;-80
2022/07/11 05:16:18;;;;;;;5.43;2.33;;;25.10;99.90;;;;;;5045580;28;20107;-74
2022/07/11 05:18:43;;;;;;;8.07;2.10;;;25.10;99.90;;;;;;5044964;28;20032;-79
2022/07/11 05:21:09;;;;;;;5.32;2.40;;;25.10;99.90;;;;;;5051420;28;20049;-76
2022/07/11 05:23:35;;;;;;;4.78;2.20;;;25.20;99.90;;;;;;5041279;28;20075;-76
2022/07/11 05:26:01;;;;;;;5.53;2.85;;;25.30;99.90;;;;;;5040188;28;20036;-76
2022/07/11 05:28:26;;;;;;;6.50;2.75;;;25.30;99.90;;;;;;5045656;28;20029;-81
2022/07/11 05:30:53;;;;;;;7.10;2.40;;;25.30;99.90;;;;;;5045138;28;20029;-74
2022/07/11 05:33:18;;;;;;;6.43;2.67;;;25.30;99.90;;;;;;5039686;28;20025;-74
2022/07/11 05:35:45;;;;;;;10.30;2.95;;;25.40;99.90;;;;;;5042722;28;20108;-75
2022/07/11 05:38:10;;;;;;;7.28;2.85;;;25.40;99.90;;;;;;5067158;28;20028;-81
2022/07/11 05:40:38;;;;;;;9.60;2.90;;;25.40;99.90;;;;;;5046720;28;20028;-75
2022/07/11 05:43:04;;;;;;;5.97;2.75;;;25.40;99.90;;;;;;5056479;28;20128;-77
2022/07/11 05:45:30;;;;;;;5.93;2.83;;;25.40;99.90;;;;;;5053333;28;20032;-80
2022/07/11 05:47:55;;;;;;;8.95;3.00;;;25.40;99.90;;;;;;5048724;28;20472;-75
2022/07/11 05:50:22;;;;;;;8.00;2.80;;;25.50;99.90;;;;;;5039170;28;20029;-75
2022/07/11 05:52:48;;;;;;;9.38;2.95;;;25.50;99.90;;;;;;5037477;28;20507;-79
2022/07/11 05:55:14;;;;;;;7.40;3.33;;;25.50;99.90;;;;;;5045676;28;20029;-76
2022/07/11 05:57:40;;;;;;;5.18;3.15;;;25.60;99.90;;;;;;5041031;28;20045;-76
2022/07/11 06:00:06;;;;;;;6.18;3.47;;;25.60;99.90;;;;;;5048560;27;20040;-80
2022/07/11 06:02:32;;;;;;;9.65;3.20;;;25.70;99.90;;;;;;5060546;28;20035;-77
2022/07/11 06:04:58;;;;;;;6.18;3.72;;;25.70;99.90;;;;;;5046139;28;20104;-76
2022/07/11 06:10:09;;;;;;;5.90;3.13;;;25.70;99.90;;;;;;5042162;28;20053;-75
2022/07/11 06:12:35;;;;;;;4.88;2.85;;;25.80;99.90;;;;;;5046999;28;20032;-76
2022/07/11 06:15:01;;;;;;;5.38;3.00;;;25.80;99.90;;;;;;5049182;28;20045;-81
2022/07/11 06:17:26;;;;;;;6.68;2.75;;;25.90;99.90;;;;;;5037803;28;20040;-76
2022/07/11 06:19:52;;;;;;;7.07;2.53;;;26.00;99.90;;;;;;5064250;28;20502;-74
2022/07/11 06:22:18;;;;;;;6.32;2.40;;;26.00;99.70;;;;;;5034262;28;20068;-77
2022/07/11 06:24:44;;;;;;;3.47;1.98;;;26.10;98.90;;;;;;5037762;28;20805;-75
2022/07/11 06:27:10;;;;;;;5.90;2.60;;;26.10;98.50;;;;;;5045334;28;20548;-75
2022/07/11 06:29:36;;;;;;;7.10;3.03;;;26.10;98.10;;;;;;5042630;28;20025;-76
2022/07/11 06:32:02;;;;;;;6.45;2.20;;;26.30;98.00;;;;;;5053374;28;20603;-76
2022/07/11 06:34:28;;;;;;;5.80;2.75;;;26.30;97.70;;;;;;5044864;28;20044;-80
2022/07/11 06:36:54;;;;;;;6.82;2.13;;;26.50;97.60;;;;;;5044266;28;20502;-77
2022/07/11 06:39:19;;;;;;;9.30;2.40;;;26.60;97.50;;;;;;5054559;28;20586;-75
2022/07/11 06:41:46;;;;;;;3.55;2.05;;;26.70;97.60;;;;;;5044277;28;20036;-75
2022/07/11 06:44:12;;;;;;;4.60;2.13;;;26.70;97.70;;;;;;5039473;28;20080;-77
2022/07/11 06:46:38;;;;;;;5.90;2.30;;;26.80;97.80;;;;;;5057024;28;20026;-76
2022/07/11 06:49:04;;;;;;;5.00;2.20;;;26.80;97.80;;;;;;5039081;28;20029;-75
2022/07/11 06:51:29;;;;;;;8.50;2.13;;;26.80;97.80;;;;;;5056441;28;20033;-75
2022/07/11 06:53:56;;;;;;;4.20;1.80;;;26.90;97.70;;;;;;5043333;28;20048;-76
2022/07/11 06:56:22;;;;;;;6.93;2.20;;;27.00;97.70;;;;;;5040666;28;20104;-75
2022/07/11 06:58:48;;;;;;;9.88;2.35;;;27.00;97.60;;;;;;5042412;28;20068;-77
2022/07/11 07:01:14;;;;;;;4.57;2.20;;;27.10;97.50;;;;;;5050447;28;20479;-77
2022/07/11 07:03:41;;;;;;;4.88;2.15;;;27.10;97.60;;;;;;5026037;28;20179;-77
2022/07/11 07:06:07;;;;;;;6.82;2.00;;;27.10;97.50;;;;;;5039754;28;20052;-78
2022/07/11 07:08:34;;;;;;;8.38;2.50;;;27.20;97.50;;;;;;5051049;28;20033;-77
2022/07/11 07:11:01;;;;;;;4.85;2.20;;;27.20;97.50;;;;;;5045149;28;20044;-76
2022/07/11 07:13:29;;;;;;;3.80;2.22;;;27.20;97.50;;;;;;5033228;28;20048;-77
2022/07/11 07:15:59;;;;;;;6.07;2.20;;;27.30;97.50;;;;;;5054013;28;20029;-77
2022/07/11 07:18:25;;;;;;;6.28;2.00;;;27.30;97.50;;;;;;5043423;28;20044;-77
2022/07/11 07:20:52;;;;;;;8.05;2.10;;;27.30;97.50;;;;;;5058566;28;20789;-76
2022/07/11 07:23:19;;;;;;;6.20;2.50;;;27.30;97.50;;;;;;5055839;28;20043;-80
2022/07/11 07:25:45;;;;;;;9.55;2.58;;;27.30;97.50;;;;;;5042055;28;20136;-75
2022/07/11 07:28:11;;;;;;;5.55;2.28;;;27.40;97.60;;;;;;5043938;28;20133;-76
2022/07/11 07:30:37;;;;;;;9.23;2.00;;;27.40;97.40;;;;;;5029288;28;20098;-77
2022/07/11 07:33:03;;;;;;;7.15;2.42;;;27.50;97.30;;;;;;5045096;28;20056;-76
2022/07/11 07:35:29;;;;;;;9.18;2.05;;;27.60;97.20;;;;;;5022329;28;20087;-74
2022/07/11 07:38:00;;;;;;;5.07;1.98;;;27.70;97.00;;;;;;5047434;28;20075;-77
2022/07/11 07:40:28;;;;;;;3.80;2.03;;;27.60;96.70;;;;;;5060059;28;20032;-79
2022/07/11 07:42:54;;;;;;;3.95;1.80;;;27.60;96.80;;;;;;5047516;28;20032;-80
2022/07/11 07:45:20;;;;;;;3.53;2.00;;;27.60;96.80;;;;;;5036062;28;20045;-76
2022/07/11 07:47:46;;;;;;;8.73;2.00;;;27.70;96.70;;;;;;5059905;28;20487;-76
2022/07/11 07:50:13;;;;;;;4.38;2.03;;;27.80;96.50;;;;;;5062219;28;20095;-82
2022/07/11 07:52:38;;;;;;;5.65;1.90;;;27.90;96.30;;;;;;5049800;28;20048;-76
2022/07/11 07:55:06;;;;;;;7.00;2.10;;;28.00;96.40;;;;;;5046340;28;20467;-76
2022/07/11 07:57:31;;;;;;;7.63;2.40;;;28.10;96.30;;;;;;5061327;28;20068;-76
2022/07/11 08:02:42;;;;;;;6.82;1.70;;;28.10;96.10;;;;;;5038920;28;20166;-82
2022/07/11 08:05:09;;;;;;;4.70;1.55;;;28.20;96.00;;;;;;5040518;28;20041;-78
2022/07/11 08:07:35;;;;;;;4.68;1.85;;;28.10;95.90;;;;;;5043110;28;20049;-76
2022/07/11 08:10:05;;;;;;;4.30;1.60;;;28.20;95.80;;;;;;5024380;28;20037;-81
2022/07/11 08:12:30;;;;;;;5.32;1.60;;;28.20;95.80;;;;;;5039151;28;20120;-82
2022/07/11 08:14:56;;;;;;;4.50;1.80;;;28.20;95.70;;;;;;5036792;28;20112;-80
2022/07/11 08:17:23;;;;;;;3.35;1.50;;;28.20;95.40;;;;;;5041753;28;20040;-76
2022/07/11 08:19:48;;;;;;;5.07;1.70;;;28.30;95.20;;;;;;5055643;28;20045;-78
2022/07/11 08:22:14;;;;;;;3.42;2.00;;;28.30;95.20;;;;;;5034668;28;20216;-83
2022/07/11 08:24:41;;;;;;;4.20;1.60;;;28.50;95.10;;;;;;5044267;28;20053;-75
2022/07/11 08:27:07;;;;;;;8.68;1.80;;;28.50;95.20;;;;;;5043259;28;20029;-78
2022/07/11 08:29:33;;;;;;;5.25;1.60;;;28.50;95.00;;;;;;5048564;28;20038;-75
2022/07/11 08:31:58;;;;;;;4.78;1.60;;;28.40;95.00;;;;;;5038576;28;20049;-82
2022/07/11 08:34:24;;;;;;;4.57;1.60;;;28.40;95.10;;;;;;5036814;28;20045;-76
2022/07/11 08:36:51;;;;;;;5.45;1.67;;;28.50;95.00;;;;;;5041870;28;20104;-75
2022/07/11 08:39:17;;;;;;;4.25;1.75;;;28.60;94.90;;;;;;5039979;28;20037;-82
2022/07/11 08:41:46;;;;;;;3.72;1.45;;;28.70;94.80;;;;;;5041106;28;20571;-80
2022/07/11 08:44:13;;;;;;;5.57;1.40;;;28.80;94.80;;;;;;5044937;28;20045;-81
2022/07/11 08:46:43;;;;;;;2.97;1.60;;;28.70;94.50;;;;;;5038192;28;20081;-76
2022/07/11 08:49:11;;;;;;;1.95;1.35;;;28.70;94.50;;;;;;5036680;28;20040;-76
2022/07/11 08:51:38;;;;;;;5.95;1.38;;;29.00;94.30;;;;;;5046822;28;20035;-77
2022/07/11 08:54:06;;;;;;;4.30;1.58;;;29.00;94.10;;;;;;5023910;28;20034;-79
2022/07/11 08:56:33;;;;;;;4.90;1.48;;;29.00;94.10;;;;;;5028885;28;20094;-77
2022/07/11 08:59:00;;;;;;;9.80;1.70;;;29.10;94.10;;;;;;5021696;28;20045;-77
2022/07/11 09:01:29;;;;;;;7.18;1.70;;;29.30;94.00;;;;;;5022187;28;20149;-76
2022/07/11 09:03:55;;;;;;;6.90;1.75;;;29.30;93.90;;;;;;5021324;28;20304;-77
2022/07/11 09:06:23;;;;;;;9.52;1.60;;;29.20;93.90;;;;;;5066770;28;20045;-81
2022/07/11 09:08:50;;;;;;;5.30;1.73;;;29.10;93.70;;;;;;5042602;28;20097;-77
2022/07/11 09:11:17;;;;;;;3.60;1.60;;;29.20;93.60;;;;;;5044711;28;20141;-77
2022/07/11 09:13:42;;;;;;;6.25;1.73;;;29.40;93.40;;;;;;5022658;28;20048;-76
2022/07/11 09:16:09;;;;;;;5.35;1.77;;;29.50;93.30;;;;;;5049771;28;20041;-75
2022/07/11 09:18:39;;;;;;;5.50;1.60;;;29.50;93.00;;;;;;5036451;28;20038;-76
2022/07/11 09:26:51;;;;;;;4.10;1.58;;;29.70;92.50;;;;;;5040382;28;20715;-76
2022/07/11 09:29:21;;;;;;;4.10;1.70;;;29.80;92.30;;;;;;5038819;28;20122;-77
2022/07/11 09:31:50;;;;;;;5.72;1.80;;;29.90;92.20;;;;;;5050784;28;20064;-78
2022/07/11 09:34:23;;;;;;;6.80;1.70;;;29.90;92.00;;;;;;5035822;28;20071;-77
2022/07/11 09:36:55;;;;;;;3.42;1.80;;;29.80;91.60;;;;;;5025982;28;20128;-83
2022/07/11 09:39:24;;;;;;;4.45;1.50;;;30.00;91.60;;;;;;5041101;28;20519;-76
2022/07/11 09:41:54;;;;;;;5.53;1.52;;;30.00;91.10;;;;;;5053427;28;20041;-77
2022/07/11 09:44:28;;;;;;;4.65;1.58;;;29.80;90.80;;;;;;5059372;28;20784;-76
2022/07/11 09:46:56;;;;;;;6.18;1.50;;;30.00;91.00;;;;;;5043917;28;20045;-81
2022/07/11 09:49:36;;;;;;;7.60;2.13;;;30.30;91.00;;;;;;5023321;28;20126;-76
2022/07/11 09:52:16;;;;;;;6.50;1.70;;;30.50;90.80;;;;;;5046964;28;20075;-80
2022/07/11 09:55:05;;;;;;;6.45;1.70;;;30.50;91.00;;;;;;5041360;28;20052;-76
2022/07/11 09:57:38;;;;;;;4.80;1.50;;;30.40;90.90;;;;;;5040218;28;20036;-76
2022/07/11 10:00:11;;;;;;;4.35;1.70;;;30.50;91.00;;;;;;5035588;28;20029;-75
2022/07/11 10:02:38;;;;;;;4.90;1.77;;;30.50;91.20;;;;;;5044490;28;20496;-75
2022/07/11 10:05:05;;;;;;;2.25;1.40;;;30.60;91.50;;;;;;5040425;28;20073;-81
2022/07/11 10:07:31;;;;;;;3.90;1.50;;;30.70;91.70;;;;;;5013923;28;20059;-76
2022/07/11 10:09:59;;;;;;;4.70;1.65;;;30.70;91.60;;;;;;5027895;28;20048;-80
2022/07/11 10:12:26;;;;;;;5.65;1.50;;;30.70;91.50;;;;;;5048319;28;20034;-77
2022/07/11 10:14:55;;;;;;;2.35;1.42;;;30.70;91.60;;;;;;5043583;28;20042;-83
2022/07/11 10:17:37;;;;;;;5.70;1.80;;;30.80;91.60;;;;;;5044522;28;20525;-82
2022/07/11 10:20:17;;;;;;;5.80;1.80;;;30.80;91.60;;;;;;5044912;28;20510;-77
2022/07/11 10:23:16;;;;;;;3.15;1.60;;;30.90;91.20;;;;;;5058471;28;20037;-76
2022/07/11 10:26:21;;;;;;;5.40;1.67;;;30.80;91.50;;;;;;5046357;28;20412;-81
2022/07/11 10:28:48;;;;;;;6.28;1.65;;;30.90;91.70;;;;;;5041565;28;20131;-77
2022/07/11 10:31:21;;;;;;;4.20;1.63;;;31.00;91.50;;;;;;5046240;28;20040;-80
2022/07/11 10:34:18;;;;;;;3.92;1.50;;;31.00;91.70;;;;;;5038381;28;20049;-76
2022/07/11 10:36:46;;;;;;;6.63;1.77;;;30.90;91.60;;;;;;5024059;28;20438;-80
2022/07/11 10:39:29;;;;;;;3.45;1.80;;;31.00;91.50;;;;;;5019829;28;20041;-77
2022/07/11 10:42:00;;;;;;;3.63;1.77;;;31.00;91.60;;;;;;5030542;28;20048;-79
2022/07/11 10:44:46;;;;;;;4.72;2.00;;;31.10;91.50;;;;;;5042508;28;20052;-77
2022/07/11 10:47:32;;;;;;;4.53;1.60;;;31.20;91.40;;;;;;5043047;28;20105;-81
2022/07/11 10:50:02;;;;;;;8.30;1.90;;;31.20;91.00;;;;;;5055435;28;20046;-77
2022/07/11 10:52:32;;;;;;;4.47;1.63;;;31.40;91.00;;;;;;5060013;28;20488;-81
2022/07/11 10:55:29;;;;;;;4.13;1.48;;;31.40;91.00;;;;;;5044393;28;20049;-79
2022/07/11 10:58:18;;;;;;;6.45;1.80;;;31.10;91.00;;;;;;5037200;28;20041;-77
2022/07/11 11:00:44;;;;;;;7.47;1.73;;;31.30;91.00;;;;;;5032365;28;20064;-83
2022/07/11 11:03:11;;;;;;;5.55;1.50;;;31.40;90.80;;;;;;5058579;28;20435;-79
2022/07/11 11:05:49;;;;;;;4.53;1.85;;;31.60;90.70;;;;;;5050559;28;20043;-80
2022/07/11 11:08:33;;;;;;;4.13;1.60;;;31.70;90.70;;;;;;5051255;28;20048;-78
2022/07/11 11:11:01;;;;;;;3.30;1.80;;;31.70;90.60;;;;;;5031445;28;20484;-79
2022/07/11 11:13:28;;;;;;;4.97;1.48;;;31.60;90.50;;;;;;5055415;28;20060;-77
2022/07/11 11:15:56;;;;;;;5.55;1.60;;;31.60;90.50;;;;;;5055024;28;20037;-80
2022/07/11 11:18:25;;;;;;;13.45;9.93;;;31.90;90.40;;;;;;5052970;28;20431;-83
2022/07/11 11:21:04;;;;;;;10.25;5.55;;;32.20;90.30;;;;;;5052719;28;20037;-83
2022/07/11 11:23:45;;;;;;;4.97;1.40;;;32.30;90.40;;;;;;5027738;28;20034;-77
2022/07/11 11:26:19;;;;;;;4.57;1.60;;;32.30;90.00;;;;;;5025035;28;20034;-83
2022/07/11 11:28:59;;;;;;;3.03;1.52;;;32.10;89.40;;;;;;5066433;28;20526;-80
2022/07/11 11:31:29;;;;;;;5.30;1.80;;;32.30;90.00;;;;;;5045617;28;20025;-77
2022/07/11 11:33:57;;;;;;;5.50;1.50;;;32.50;89.30;;;;;;5039216;28;20036;-76
2022/07/11 11:36:25;;;;;;;3.92;1.33;;;32.40;88.90;;;;;;5056086;28;20036;-75
2022/07/11 11:38:52;;;;;;;3.67;1.63;;;32.60;88.90;;;;;;5052853;28;20049;-82
2022/07/11 11:41:28;;;;;;;6.78;1.67;;;32.80;88.20;;;;;;5044253;28;20045;-77
2022/07/11 11:43:59;;;;;;;3.78;1.80;;;32.80;89.50;;;;;;5049447;28;20041;-78
2022/07/11 11:46:33;;;;;;;5.13;1.90;;;33.10;89.10;;;;;;5022742;28;20071;-77
2022/07/11 11:49:01;;;;;;;4.90;2.00;;;33.10;89.10;;;;;;5029123;28;20040;-77
2022/07/11 11:51:28;;;;;;;2.97;1.50;;;33.40;89.10;;;;;;5047419;28;20060;-79
2022/07/11 11:53:58;;;;;;;3.92;1.50;;;33.40;88.70;;;;;;5044784;28;20561;-84
2022/07/11 11:56:32;;;;;;;3.15;1.50;;;33.60;88.30;;;;;;5062014;28;20149;-82
2022/07/11 11:59:12;;;;;;;7.90;1.95;;;33.80;88.50;;;;;;5043302;28;20037;-83
2022/07/11 12:01:45;;;;;;;6.97;1.70;;;34.10;88.30;;;;;;5024355;28;20515;-77
2022/07/11 12:04:16;;;;;;;9.93;2.08;;;34.00;88.30;;;;;;5022443;28;20049;-78
2022/07/11 12:06:50;;;;;;;5.70;2.33;;;33.70;88.60;;;;;;5026723;28;20029;-79
2022/07/11 12:09:18;;;;;;;4.10;1.50;;;33.60;87.80;;;;;;5031285;28;20029;-81
2022/07/11 12:11:46;;;;;;;3.88;1.42;;;33.00;87.90;;;;;;5029237;28;20114;-78
2022/07/11 12:14:14;;;;;;;4.35;1.80;;;32.50;88.30;;;;;;5031049;28;20381;-77
2022/07/11 12:16:46;;;;;;;3.65;1.70;;;32.80;88.10;;;;;;5029515;28;20077;-81
2022/07/11 12:19:17;;;;;;;5.25;1.88;;;33.40;87.80;;;;;;5019637;28;20160;-82
2022/07/11 12:21:48;;;;;;;7.03;1.70;;;33.70;87.90;;;;;;5026998;28;20046;-78
2022/07/11 12:24:22;;;;;;;4.68;1.95;;;33.60;87.70;;;;;;5055384;28;20037;-77
2022/07/11 12:26:48;;;;;;;4.70;1.88;;;34.10;87.20;;;;;;5057572;28;20043;-77
2022/07/11 12:41:41;;;;;;;3.63;1.55;;;34.30;86.30;;;;;;6136292;22;2292810;-75
2022/07/11 12:46:53;;;;;;;3.30;1.30;;;34.90;85.00;;;;;;6143101;23;20016;-75
2022/07/11 12:49:19;;;;;;;4.68;1.60;;;35.10;85.10;;;;;;6134549;23;20017;-75
2022/07/11 12:51:46;;;;;;;4.10;1.58;;;35.10;85.00;;;;;;6141237;23;20092;-76
2022/07/11 12:54:14;;;;;;;4.75;1.38;;;35.50;84.10;;;;;;6140643;23;20017;-74
2022/07/11 12:56:54;;;;;;;2.67;1.63;;;35.40;84.00;;;;;;6140766;23;20037;-76
2022/07/11 12:59:25;;;;;;;5.45;1.80;;;35.60;84.30;;;;;;6141223;23;20023;-77
2022/07/11 13:02:01;;;;;;;;;;;35.70;84.80;;;;;;6135162;23;20492;-77
2022/07/11 13:04:37;;;;;;;5.05;1.45;;;36.10;84.40;;;;;;6157000;23;19916;-75
2022/07/11 13:10:07;;;;;;;4.78;1.40;;;35.50;84.20;;;;;;6152440;23;20109;-77
2022/07/11 13:12:36;;;;;;;2.28;1.55;;;35.90;84.20;;;;;;6125723;23;20005;-77
2022/07/11 13:15:10;;;;;;;3.88;1.52;;;35.60;84.30;;;;;;6151774;23;20028;-76
2022/07/11 13:17:53;;;;;;;3.20;1.60;;;35.90;84.30;;;;;;6132345;23;20073;-75
2022/07/11 13:20:23;;;;;;;3.70;1.60;;;35.80;84.30;;;;;;6142327;23;20022;-75
2022/07/11 13:22:51;;;;;;;2.97;1.60;;;35.80;85.10;;;;;;6135185;23;20013;-77